sensor_id;sensor_type;location;lat;lon;timestamp;P1;durP1;ratioP1;P2;durP2;ratioP2
55254;SDS011;41118;44.634;11.182;2024-02-14T00:00:25;12.23;;;6.28;;
55254;SDS011;41118;44.634;11.182;2024-02-14T00:02:51;14.50;;;6.75;;
55254;SDS011;41118;44.634;11.182;2024-02-14T00:05:17;13.52;;;5.75;;
55254;SDS011;41118;44.634;11.182;2024-02-14T00:07:44;13.73;;;5.68;;
55254;SDS011;41118;44.634;11.182;2024-02-14T00:10:11;18.38;;;7.00;;
55254;SDS011;41118;44.634;11.182;2024-02-14T00:12:37;8.32;;;6.07;;
55254;SDS011;41118;44.634;11.182;2024-02-14T00:15:03;17.65;;;5.82;;
55254;SDS011;41118;44.634;11.182;2024-02-14T00:17:31;18.20;;;8.43;;
55254;SDS011;41118;44.634;11.182;2024-02-14T00:19:57;15.35;;;7.75;;
55254;SDS011;41118;44.634;11.182;2024-02-14T00:22:23;12.98;;;5.90;;
55254;SDS011;41118;44.634;11.182;2024-02-14T00:24:49;12.90;;;5.90;;
55254;SDS011;41118;44.634;11.182;2024-02-14T00:27:15;11.15;;;6.00;;
55254;SDS011;41118;44.634;11.182;2024-02-14T00:29:42;12.02;;;5.63;;
55254;SDS011;41118;44.634;11.182;2024-02-14T00:32:10;11.05;;;5.78;;
55254;SDS011;41118;44.634;11.182;2024-02-14T00:34:36;16.85;;;6.28;;
55254;SDS011;41118;44.634;11.182;2024-02-14T00:37:02;9.52;;;4.35;;
55254;SDS011;41118;44.634;11.182;2024-02-14T00:39:29;8.88;;;4.25;;
55254;SDS011;41118;44.634;11.182;2024-02-14T00:41:55;9.48;;;4.45;;
55254;SDS011;41118;44.634;11.182;2024-02-14T00:44:21;11.38;;;4.72;;
55254;SDS011;41118;44.634;11.182;2024-02-14T00:46:48;13.13;;;5.88;;
55254;SDS011;41118;44.634;11.182;2024-02-14T00:49:14;10.70;;;4.45;;
55254;SDS011;41118;44.634;11.182;2024-02-14T00:51:40;12.93;;;5.38;;
55254;SDS011;41118;44.634;11.182;2024-02-14T00:54:06;13.82;;;4.97;;
55254;SDS011;41118;44.634;11.182;2024-02-14T00:56:33;10.63;;;3.63;;
55254;SDS011;41118;44.634;11.182;2024-02-14T00:58:59;10.95;;;5.53;;
55254;SDS011;41118;44.634;11.182;2024-02-14T01:01:25;10.07;;;4.63;;
55254;SDS011;41118;44.634;11.182;2024-02-14T01:03:52;13.98;;;4.65;;
55254;SDS011;41118;44.634;11.182;2024-02-14T01:06:18;12.55;;;4.38;;
55254;SDS011;41118;44.634;11.182;2024-02-14T01:08:45;12.57;;;4.60;;
55254;SDS011;41118;44.634;11.182;2024-02-14T01:11:11;12.20;;;5.15;;
55254;SDS011;41118;44.634;11.182;2024-02-14T01:13:38;12.13;;;6.90;;
55254;SDS011;41118;44.634;11.182;2024-02-14T01:16:04;12.15;;;3.85;;
55254;SDS011;41118;44.634;11.182;2024-02-14T01:18:31;11.80;;;4.55;;
55254;SDS011;41118;44.634;11.182;2024-02-14T01:20:57;8.20;;;3.90;;
55254;SDS011;41118;44.634;11.182;2024-02-14T01:23:25;8.75;;;3.40;;
55254;SDS011;41118;44.634;11.182;2024-02-14T01:25:52;11.80;;;4.80;;
55254;SDS011;41118;44.634;11.182;2024-02-14T01:28:19;10.25;;;4.43;;
55254;SDS011;41118;44.634;11.182;2024-02-14T01:30:45;14.95;;;5.53;;
55254;SDS011;41118;44.634;11.182;2024-02-14T01:33:12;15.77;;;5.50;;
55254;SDS011;41118;44.634;11.182;2024-02-14T01:35:38;10.48;;;3.92;;
55254;SDS011;41118;44.634;11.182;2024-02-14T01:38:05;11.80;;;3.80;;
55254;SDS011;41118;44.634;11.182;2024-02-14T01:40:31;8.48;;;4.60;;
55254;SDS011;41118;44.634;11.182;2024-02-14T01:42:57;9.68;;;4.07;;
55254;SDS011;41118;44.634;11.182;2024-02-14T01:45:23;11.82;;;4.43;;
55254;SDS011;41118;44.634;11.182;2024-02-14T01:47:49;6.63;;;3.08;;
55254;SDS011;41118;44.634;11.182;2024-02-14T01:50:16;8.70;;;3.78;;
55254;SDS011;41118;44.634;11.182;2024-02-14T01:52:43;9.23;;;4.07;;
55254;SDS011;41118;44.634;11.182;2024-02-14T01:55:11;9.25;;;3.70;;
55254;SDS011;41118;44.634;11.182;2024-02-14T01:57:38;13.88;;;4.65;;
55254;SDS011;41118;44.634;11.182;2024-02-14T02:00:05;14.32;;;5.78;;
55254;SDS011;41118;44.634;11.182;2024-02-14T02:02:34;13.20;;;5.82;;
55254;SDS011;41118;44.634;11.182;2024-02-14T02:05:04;10.27;;;4.18;;
55254;SDS011;41118;44.634;11.182;2024-02-14T02:07:31;9.40;;;3.60;;
55254;SDS011;41118;44.634;11.182;2024-02-14T02:09:58;10.05;;;5.43;;
55254;SDS011;41118;44.634;11.182;2024-02-14T02:12:24;12.55;;;5.85;;
55254;SDS011;41118;44.634;11.182;2024-02-14T02:14:52;8.93;;;4.28;;
55254;SDS011;41118;44.634;11.182;2024-02-14T02:17:18;9.73;;;3.92;;
55254;SDS011;41118;44.634;11.182;2024-02-14T02:19:44;12.10;;;3.70;;
55254;SDS011;41118;44.634;11.182;2024-02-14T02:22:10;13.10;;;4.78;;
55254;SDS011;41118;44.634;11.182;2024-02-14T02:24:36;9.40;;;4.75;;
55254;SDS011;41118;44.634;11.182;2024-02-14T02:27:03;5.40;;;3.72;;
55254;SDS011;41118;44.634;11.182;2024-02-14T02:29:29;11.10;;;4.65;;
55254;SDS011;41118;44.634;11.182;2024-02-14T02:31:57;12.10;;;4.72;;
55254;SDS011;41118;44.634;11.182;2024-02-14T02:34:23;11.88;;;4.63;;
55254;SDS011;41118;44.634;11.182;2024-02-14T02:36:49;9.50;;;4.88;;
55254;SDS011;41118;44.634;11.182;2024-02-14T02:39:16;12.68;;;5.95;;
55254;SDS011;41118;44.634;11.182;2024-02-14T02:41:42;12.05;;;5.57;;
55254;SDS011;41118;44.634;11.182;2024-02-14T02:44:10;8.50;;;4.05;;
55254;SDS011;41118;44.634;11.182;2024-02-14T02:46:37;14.15;;;5.03;;
55254;SDS011;41118;44.634;11.182;2024-02-14T02:49:03;8.85;;;3.97;;
55254;SDS011;41118;44.634;11.182;2024-02-14T02:51:29;9.27;;;3.95;;
55254;SDS011;41118;44.634;11.182;2024-02-14T02:53:56;11.93;;;4.40;;
55254;SDS011;41118;44.634;11.182;2024-02-14T02:56:22;8.45;;;3.80;;
55254;SDS011;41118;44.634;11.182;2024-02-14T02:58:52;6.82;;;3.28;;
55254;SDS011;41118;44.634;11.182;2024-02-14T03:01:18;11.55;;;4.60;;
55254;SDS011;41118;44.634;11.182;2024-02-14T03:03:44;15.48;;;5.28;;
55254;SDS011;41118;44.634;11.182;2024-02-14T03:06:10;11.50;;;4.57;;
55254;SDS011;41118;44.634;11.182;2024-02-14T03:08:37;11.00;;;4.82;;
55254;SDS011;41118;44.634;11.182;2024-02-14T03:11:06;11.88;;;4.13;;
55254;SDS011;41118;44.634;11.182;2024-02-14T03:13:33;9.77;;;3.78;;
55254;SDS011;41118;44.634;11.182;2024-02-14T03:16:00;10.75;;;4.20;;
55254;SDS011;41118;44.634;11.182;2024-02-14T03:18:27;11.30;;;5.32;;
55254;SDS011;41118;44.634;11.182;2024-02-14T03:20:53;12.55;;;4.70;;
55254;SDS011;41118;44.634;11.182;2024-02-14T03:23:19;13.23;;;5.60;;
55254;SDS011;41118;44.634;11.182;2024-02-14T03:25:45;12.70;;;4.65;;
55254;SDS011;41118;44.634;11.182;2024-02-14T03:28:11;9.65;;;3.70;;
55254;SDS011;41118;44.634;11.182;2024-02-14T03:30:38;10.45;;;3.08;;
55254;SDS011;41118;44.634;11.182;2024-02-14T03:33:04;10.05;;;2.42;;
55254;SDS011;41118;44.634;11.182;2024-02-14T03:35:31;6.22;;;2.88;;
55254;SDS011;41118;44.634;11.182;2024-02-14T03:37:59;7.90;;;2.40;;
55254;SDS011;41118;44.634;11.182;2024-02-14T03:40:25;10.00;;;2.25;;
55254;SDS011;41118;44.634;11.182;2024-02-14T03:42:52;6.35;;;1.77;;
55254;SDS011;41118;44.634;11.182;2024-02-14T03:45:18;9.48;;;3.50;;
55254;SDS011;41118;44.634;11.182;2024-02-14T03:47:44;12.18;;;3.50;;
55254;SDS011;41118;44.634;11.182;2024-02-14T03:50:10;9.82;;;3.20;;
55254;SDS011;41118;44.634;11.182;2024-02-14T03:52:37;7.97;;;2.17;;
55254;SDS011;41118;44.634;11.182;2024-02-14T03:55:03;13.13;;;3.70;;
55254;SDS011;41118;44.634;11.182;2024-02-14T03:57:29;7.90;;;3.15;;
55254;SDS011;41118;44.634;11.182;2024-02-14T03:59:55;9.65;;;2.60;;
55254;SDS011;41118;44.634;11.182;2024-02-14T04:02:22;8.27;;;3.50;;
55254;SDS011;41118;44.634;11.182;2024-02-14T04:04:48;10.18;;;2.75;;
55254;SDS011;41118;44.634;11.182;2024-02-14T04:07:15;9.10;;;3.33;;
55254;SDS011;41118;44.634;11.182;2024-02-14T04:09:41;7.60;;;2.13;;
55254;SDS011;41118;44.634;11.182;2024-02-14T04:12:07;12.18;;;2.63;;
55254;SDS011;41118;44.634;11.182;2024-02-14T04:14:35;7.82;;;3.13;;
55254;SDS011;41118;44.634;11.182;2024-02-14T04:17:02;8.48;;;3.25;;
55254;SDS011;41118;44.634;11.182;2024-02-14T04:19:28;5.50;;;2.22;;
55254;SDS011;41118;44.634;11.182;2024-02-14T04:21:54;8.35;;;2.58;;
55254;SDS011;41118;44.634;11.182;2024-02-14T04:24:20;9.93;;;2.78;;
55254;SDS011;41118;44.634;11.182;2024-02-14T04:26:47;7.57;;;2.05;;
55254;SDS011;41118;44.634;11.182;2024-02-14T04:29:14;11.80;;;3.55;;
55254;SDS011;41118;44.634;11.182;2024-02-14T04:31:41;9.52;;;3.35;;
55254;SDS011;41118;44.634;11.182;2024-02-14T04:34:08;8.82;;;2.90;;
55254;SDS011;41118;44.634;11.182;2024-02-14T04:36:35;7.65;;;3.13;;
55254;SDS011;41118;44.634;11.182;2024-02-14T04:39:01;13.68;;;5.55;;
55254;SDS011;41118;44.634;11.182;2024-02-14T04:41:28;9.25;;;3.83;;
55254;SDS011;41118;44.634;11.182;2024-02-14T04:43:54;12.43;;;4.05;;
55254;SDS011;41118;44.634;11.182;2024-02-14T04:46:20;13.38;;;5.28;;
55254;SDS011;41118;44.634;11.182;2024-02-14T04:48:47;14.43;;;5.15;;
55254;SDS011;41118;44.634;11.182;2024-02-14T04:51:13;13.73;;;5.38;;
55254;SDS011;41118;44.634;11.182;2024-02-14T04:53:39;13.40;;;5.75;;
55254;SDS011;41118;44.634;11.182;2024-02-14T04:56:05;11.07;;;4.60;;
55254;SDS011;41118;44.634;11.182;2024-02-14T04:58:32;11.02;;;4.07;;
55254;SDS011;41118;44.634;11.182;2024-02-14T05:00:58;14.65;;;4.60;;
55254;SDS011;41118;44.634;11.182;2024-02-14T05:03:25;10.13;;;2.72;;
55254;SDS011;41118;44.634;11.182;2024-02-14T05:05:51;9.77;;;4.30;;
55254;SDS011;41118;44.634;11.182;2024-02-14T05:08:17;11.00;;;3.25;;
55254;SDS011;41118;44.634;11.182;2024-02-14T05:10:43;10.18;;;2.90;;
55254;SDS011;41118;44.634;11.182;2024-02-14T05:13:10;7.57;;;3.42;;
55254;SDS011;41118;44.634;11.182;2024-02-14T05:15:36;11.85;;;5.15;;
55254;SDS011;41118;44.634;11.182;2024-02-14T05:18:03;15.30;;;5.40;;
55254;SDS011;41118;44.634;11.182;2024-02-14T05:20:30;13.50;;;4.93;;
55254;SDS011;41118;44.634;11.182;2024-02-14T05:22:57;13.27;;;3.10;;
55254;SDS011;41118;44.634;11.182;2024-02-14T05:25:23;14.25;;;5.07;;
55254;SDS011;41118;44.634;11.182;2024-02-14T05:27:49;8.30;;;3.47;;
55254;SDS011;41118;44.634;11.182;2024-02-14T05:30:16;9.82;;;5.03;;
55254;SDS011;41118;44.634;11.182;2024-02-14T05:32:42;9.43;;;5.20;;
55254;SDS011;41118;44.634;11.182;2024-02-14T05:35:08;11.32;;;4.00;;
55254;SDS011;41118;44.634;11.182;2024-02-14T05:37:34;11.35;;;3.70;;
55254;SDS011;41118;44.634;11.182;2024-02-14T05:40:02;9.45;;;2.13;;
55254;SDS011;41118;44.634;11.182;2024-02-14T05:42:28;9.18;;;3.28;;
55254;SDS011;41118;44.634;11.182;2024-02-14T05:44:54;9.82;;;3.45;;
55254;SDS011;41118;44.634;11.182;2024-02-14T05:47:20;10.70;;;4.43;;
55254;SDS011;41118;44.634;11.182;2024-02-14T05:49:46;11.40;;;5.75;;
55254;SDS011;41118;44.634;11.182;2024-02-14T05:52:12;9.80;;;3.50;;
55254;SDS011;41118;44.634;11.182;2024-02-14T05:54:40;12.70;;;4.55;;
55254;SDS011;41118;44.634;11.182;2024-02-14T05:57:06;11.80;;;4.63;;
55254;SDS011;41118;44.634;11.182;2024-02-14T05:59:32;9.65;;;3.33;;
55254;SDS011;41118;44.634;11.182;2024-02-14T06:01:58;13.13;;;4.25;;
55254;SDS011;41118;44.634;11.182;2024-02-14T06:04:24;11.05;;;3.17;;
55254;SDS011;41118;44.634;11.182;2024-02-14T06:06:50;11.85;;;4.43;;
55254;SDS011;41118;44.634;11.182;2024-02-14T06:09:16;9.05;;;4.70;;
55254;SDS011;41118;44.634;11.182;2024-02-14T06:11:42;8.38;;;3.15;;
55254;SDS011;41118;44.634;11.182;2024-02-14T06:14:09;9.38;;;4.03;;
55254;SDS011;41118;44.634;11.182;2024-02-14T06:16:35;13.32;;;4.45;;
55254;SDS011;41118;44.634;11.182;2024-02-14T06:19:01;8.40;;;1.83;;
55254;SDS011;41118;44.634;11.182;2024-02-14T06:21:29;10.55;;;3.78;;
55254;SDS011;41118;44.634;11.182;2024-02-14T06:23:55;11.18;;;4.45;;
55254;SDS011;41118;44.634;11.182;2024-02-14T06:26:23;10.95;;;4.38;;
55254;SDS011;41118;44.634;11.182;2024-02-14T06:28:50;7.75;;;3.50;;
55254;SDS011;41118;44.634;11.182;2024-02-14T06:31:19;7.80;;;4.32;;
55254;SDS011;41118;44.634;11.182;2024-02-14T06:33:46;11.10;;;3.22;;
55254;SDS011;41118;44.634;11.182;2024-02-14T06:36:12;13.48;;;3.80;;
55254;SDS011;41118;44.634;11.182;2024-02-14T06:38:39;10.90;;;3.65;;
55254;SDS011;41118;44.634;11.182;2024-02-14T06:41:05;10.05;;;4.13;;
55254;SDS011;41118;44.634;11.182;2024-02-14T06:43:31;12.40;;;5.88;;
55254;SDS011;41118;44.634;11.182;2024-02-14T06:45:57;14.57;;;5.57;;
55254;SDS011;41118;44.634;11.182;2024-02-14T06:48:24;14.77;;;5.20;;
55254;SDS011;41118;44.634;11.182;2024-02-14T06:50:50;19.00;;;4.65;;
55254;SDS011;41118;44.634;11.182;2024-02-14T06:53:17;14.98;;;5.05;;
55254;SDS011;41118;44.634;11.182;2024-02-14T06:55:43;10.45;;;3.17;;
55254;SDS011;41118;44.634;11.182;2024-02-14T06:58:09;14.80;;;4.05;;
55254;SDS011;41118;44.634;11.182;2024-02-14T07:00:35;16.15;;;3.92;;
55254;SDS011;41118;44.634;11.182;2024-02-14T07:03:02;13.20;;;4.60;;
55254;SDS011;41118;44.634;11.182;2024-02-14T07:05:28;10.48;;;4.00;;
55254;SDS011;41118;44.634;11.182;2024-02-14T07:07:55;25.85;;;5.82;;
55254;SDS011;41118;44.634;11.182;2024-02-14T07:10:21;11.00;;;4.38;;
55254;SDS011;41118;44.634;11.182;2024-02-14T07:12:47;10.80;;;4.15;;
55254;SDS011;41118;44.634;11.182;2024-02-14T07:15:14;9.85;;;3.67;;
55254;SDS011;41118;44.634;11.182;2024-02-14T07:17:40;12.30;;;4.75;;
55254;SDS011;41118;44.634;11.182;2024-02-14T07:20:06;12.48;;;4.75;;
55254;SDS011;41118;44.634;11.182;2024-02-14T07:22:35;15.40;;;4.78;;
55254;SDS011;41118;44.634;11.182;2024-02-14T07:25:02;11.40;;;6.07;;
55254;SDS011;41118;44.634;11.182;2024-02-14T07:27:30;14.10;;;4.35;;
55254;SDS011;41118;44.634;11.182;2024-02-14T07:29:56;11.52;;;4.13;;
55254;SDS011;41118;44.634;11.182;2024-02-14T07:32:22;11.10;;;4.03;;
55254;SDS011;41118;44.634;11.182;2024-02-14T07:34:49;14.43;;;4.80;;
55254;SDS011;41118;44.634;11.182;2024-02-14T07:37:15;15.77;;;5.63;;
55254;SDS011;41118;44.634;11.182;2024-02-14T07:39:43;10.80;;;4.65;;
55254;SDS011;41118;44.634;11.182;2024-02-14T07:42:09;12.68;;;4.43;;
55254;SDS011;41118;44.634;11.182;2024-02-14T07:44:36;16.73;;;6.18;;
55254;SDS011;41118;44.634;11.182;2024-02-14T07:47:02;14.93;;;3.35;;
55254;SDS011;41118;44.634;11.182;2024-02-14T07:49:28;11.40;;;4.30;;
55254;SDS011;41118;44.634;11.182;2024-02-14T07:51:54;15.50;;;5.13;;
55254;SDS011;41118;44.634;11.182;2024-02-14T07:54:20;10.45;;;4.30;;
55254;SDS011;41118;44.634;11.182;2024-02-14T07:56:47;9.27;;;3.47;;
55254;SDS011;41118;44.634;11.182;2024-02-14T07:59:13;10.18;;;2.33;;
55254;SDS011;41118;44.634;11.182;2024-02-14T08:01:39;4.10;;;1.85;;
55254;SDS011;41118;44.634;11.182;2024-02-14T08:04:05;3.40;;;1.20;;
55254;SDS011;41118;44.634;11.182;2024-02-14T08:06:32;6.78;;;1.65;;
55254;SDS011;41118;44.634;11.182;2024-02-14T08:08:59;10.25;;;1.80;;
55254;SDS011;41118;44.634;11.182;2024-02-14T08:11:27;6.25;;;0.85;;
55254;SDS011;41118;44.634;11.182;2024-02-14T08:13:54;5.85;;;1.25;;
55254;SDS011;41118;44.634;11.182;2024-02-14T08:16:20;5.30;;;1.13;;
55254;SDS011;41118;44.634;11.182;2024-02-14T08:18:46;5.57;;;0.90;;
55254;SDS011;41118;44.634;11.182;2024-02-14T08:21:13;7.10;;;1.48;;
55254;SDS011;41118;44.634;11.182;2024-02-14T08:23:40;9.27;;;1.30;;
55254;SDS011;41118;44.634;11.182;2024-02-14T08:26:06;11.75;;;2.03;;
55254;SDS011;41118;44.634;11.182;2024-02-14T08:28:36;5.38;;;0.93;;
55254;SDS011;41118;44.634;11.182;2024-02-14T08:31:03;5.47;;;1.20;;
55254;SDS011;41118;44.634;11.182;2024-02-14T08:33:29;4.43;;;1.27;;
55254;SDS011;41118;44.634;11.182;2024-02-14T08:35:55;7.65;;;1.17;;
55254;SDS011;41118;44.634;11.182;2024-02-14T08:38:22;7.00;;;1.20;;
55254;SDS011;41118;44.634;11.182;2024-02-14T08:40:48;8.68;;;2.05;;
55254;SDS011;41118;44.634;11.182;2024-02-14T08:43:14;15.20;;;2.50;;
55254;SDS011;41118;44.634;11.182;2024-02-14T08:45:40;8.05;;;2.42;;
55254;SDS011;41118;44.634;11.182;2024-02-14T08:48:06;6.70;;;2.00;;
55254;SDS011;41118;44.634;11.182;2024-02-14T08:50:32;6.18;;;1.98;;
55254;SDS011;41118;44.634;11.182;2024-02-14T08:52:58;7.43;;;1.70;;
55254;SDS011;41118;44.634;11.182;2024-02-14T08:55:24;9.73;;;2.67;;
55254;SDS011;41118;44.634;11.182;2024-02-14T08:57:51;14.90;;;2.95;;
55254;SDS011;41118;44.634;11.182;2024-02-14T09:00:17;12.13;;;3.20;;
55254;SDS011;41118;44.634;11.182;2024-02-14T09:02:47;12.82;;;4.32;;
55254;SDS011;41118;44.634;11.182;2024-02-14T09:05:13;10.40;;;3.30;;
55254;SDS011;41118;44.634;11.182;2024-02-14T09:07:39;12.45;;;2.65;;
55254;SDS011;41118;44.634;11.182;2024-02-14T09:10:06;12.35;;;3.83;;
55254;SDS011;41118;44.634;11.182;2024-02-14T09:12:33;10.38;;;3.40;;
55254;SDS011;41118;44.634;11.182;2024-02-14T09:14:59;9.68;;;3.80;;
55254;SDS011;41118;44.634;11.182;2024-02-14T09:17:25;8.20;;;2.30;;
55254;SDS011;41118;44.634;11.182;2024-02-14T09:19:51;7.28;;;2.15;;
55254;SDS011;41118;44.634;11.182;2024-02-14T09:22:17;16.42;;;3.85;;
55254;SDS011;41118;44.634;11.182;2024-02-14T09:24:46;6.90;;;1.40;;
55254;SDS011;41118;44.634;11.182;2024-02-14T09:27:13;5.97;;;1.83;;
55254;SDS011;41118;44.634;11.182;2024-02-14T09:29:39;4.05;;;0.98;;
55254;SDS011;41118;44.634;11.182;2024-02-14T09:32:05;5.75;;;1.38;;
55254;SDS011;41118;44.634;11.182;2024-02-14T09:34:31;4.63;;;1.42;;
55254;SDS011;41118;44.634;11.182;2024-02-14T09:36:57;5.53;;;1.02;;
55254;SDS011;41118;44.634;11.182;2024-02-14T09:39:24;5.10;;;0.95;;
55254;SDS011;41118;44.634;11.182;2024-02-14T09:41:54;7.30;;;0.80;;
55254;SDS011;41118;44.634;11.182;2024-02-14T09:44:20;3.80;;;1.30;;
55254;SDS011;41118;44.634;11.182;2024-02-14T09:46:47;4.72;;;1.55;;
55254;SDS011;41118;44.634;11.182;2024-02-14T09:49:13;4.75;;;1.02;;
55254;SDS011;41118;44.634;11.182;2024-02-14T09:51:40;6.65;;;1.55;;
55254;SDS011;41118;44.634;11.182;2024-02-14T09:54:06;6.53;;;1.95;;
55254;SDS011;41118;44.634;11.182;2024-02-14T09:56:32;5.57;;;1.23;;
55254;SDS011;41118;44.634;11.182;2024-02-14T09:58:58;8.05;;;2.05;;
55254;SDS011;41118;44.634;11.182;2024-02-14T10:01:26;5.00;;;1.02;;
55254;SDS011;41118;44.634;11.182;2024-02-14T10:03:53;6.88;;;1.27;;
55254;SDS011;41118;44.634;11.182;2024-02-14T10:06:19;7.38;;;1.38;;
55254;SDS011;41118;44.634;11.182;2024-02-14T10:08:52;6.90;;;1.85;;
55254;SDS011;41118;44.634;11.182;2024-02-14T10:11:18;9.82;;;3.13;;
55254;SDS011;41118;44.634;11.182;2024-02-14T10:13:48;5.50;;;1.65;;
55254;SDS011;41118;44.634;11.182;2024-02-14T10:16:16;7.10;;;1.52;;
55254;SDS011;41118;44.634;11.182;2024-02-14T10:18:44;6.72;;;1.67;;
55254;SDS011;41118;44.634;11.182;2024-02-14T10:21:15;5.72;;;1.88;;
55254;SDS011;41118;44.634;11.182;2024-02-14T10:23:44;6.28;;;1.73;;
55254;SDS011;41118;44.634;11.182;2024-02-14T10:26:15;8.00;;;2.13;;
55254;SDS011;41118;44.634;11.182;2024-02-14T10:28:42;11.27;;;1.95;;
55254;SDS011;41118;44.634;11.182;2024-02-14T10:31:09;6.10;;;1.00;;
55254;SDS011;41118;44.634;11.182;2024-02-14T10:33:36;7.85;;;1.67;;
55254;SDS011;41118;44.634;11.182;2024-02-14T10:36:02;6.80;;;2.13;;
55254;SDS011;41118;44.634;11.182;2024-02-14T10:38:32;6.05;;;2.08;;
55254;SDS011;41118;44.634;11.182;2024-02-14T10:41:02;11.40;;;2.50;;
55254;SDS011;41118;44.634;11.182;2024-02-14T10:43:28;5.28;;;1.75;;
55254;SDS011;41118;44.634;11.182;2024-02-14T10:45:55;7.80;;;1.95;;
55254;SDS011;41118;44.634;11.182;2024-02-14T10:48:23;6.55;;;2.28;;
55254;SDS011;41118;44.634;11.182;2024-02-14T10:50:53;6.63;;;1.95;;
55254;SDS011;41118;44.634;11.182;2024-02-14T10:53:20;8.45;;;2.15;;
55254;SDS011;41118;44.634;11.182;2024-02-14T10:55:48;5.57;;;2.00;;
55254;SDS011;41118;44.634;11.182;2024-02-14T10:58:17;4.80;;;1.48;;
55254;SDS011;41118;44.634;11.182;2024-02-14T11:00:43;8.60;;;2.97;;
55254;SDS011;41118;44.634;11.182;2024-02-14T11:03:10;9.80;;;2.28;;
55254;SDS011;41118;44.634;11.182;2024-02-14T11:05:46;10.20;;;2.22;;
55254;SDS011;41118;44.634;11.182;2024-02-14T11:08:19;4.65;;;0.90;;
55254;SDS011;41118;44.634;11.182;2024-02-14T11:10:52;6.45;;;2.63;;
55254;SDS011;41118;44.634;11.182;2024-02-14T11:13:18;13.15;;;1.65;;
55254;SDS011;41118;44.634;11.182;2024-02-14T11:15:45;4.35;;;1.45;;
55254;SDS011;41118;44.634;11.182;2024-02-14T11:18:24;5.80;;;2.33;;
55254;SDS011;41118;44.634;11.182;2024-02-14T11:20:50;8.40;;;1.88;;
55254;SDS011;41118;44.634;11.182;2024-02-14T11:23:20;10.50;;;3.50;;
55254;SDS011;41118;44.634;11.182;2024-02-14T11:25:47;7.03;;;2.53;;
55254;SDS011;41118;44.634;11.182;2024-02-14T11:28:14;4.80;;;1.75;;
55254;SDS011;41118;44.634;11.182;2024-02-14T11:30:40;9.77;;;2.22;;
55254;SDS011;41118;44.634;11.182;2024-02-14T11:33:17;8.43;;;1.85;;
55254;SDS011;41118;44.634;11.182;2024-02-14T11:35:44;11.00;;;2.35;;
55254;SDS011;41118;44.634;11.182;2024-02-14T11:38:10;6.97;;;2.10;;
55254;SDS011;41118;44.634;11.182;2024-02-14T11:40:37;8.48;;;2.40;;
55254;SDS011;41118;44.634;11.182;2024-02-14T11:43:12;11.63;;;0.80;;
55254;SDS011;41118;44.634;11.182;2024-02-14T11:45:39;9.80;;;2.05;;
55254;SDS011;41118;44.634;11.182;2024-02-14T11:48:10;5.53;;;1.33;;
55254;SDS011;41118;44.634;11.182;2024-02-14T11:50:38;9.07;;;2.55;;
55254;SDS011;41118;44.634;11.182;2024-02-14T11:53:05;11.70;;;4.22;;
55254;SDS011;41118;44.634;11.182;2024-02-14T11:55:35;9.90;;;3.35;;
55254;SDS011;41118;44.634;11.182;2024-02-14T11:58:02;10.35;;;3.20;;
55254;SDS011;41118;44.634;11.182;2024-02-14T12:00:28;13.30;;;3.55;;
55254;SDS011;41118;44.634;11.182;2024-02-14T12:02:54;9.52;;;2.40;;
55254;SDS011;41118;44.634;11.182;2024-02-14T12:05:21;10.15;;;2.10;;
55254;SDS011;41118;44.634;11.182;2024-02-14T12:07:47;9.75;;;2.03;;
55254;SDS011;41118;44.634;11.182;2024-02-14T12:10:13;9.73;;;1.80;;
55254;SDS011;41118;44.634;11.182;2024-02-14T12:12:39;9.27;;;1.98;;
55254;SDS011;41118;44.634;11.182;2024-02-14T12:15:05;10.07;;;3.38;;
55254;SDS011;41118;44.634;11.182;2024-02-14T12:17:35;7.40;;;2.42;;
55254;SDS011;41118;44.634;11.182;2024-02-14T12:20:10;8.20;;;2.17;;
55254;SDS011;41118;44.634;11.182;2024-02-14T12:22:38;5.18;;;1.52;;
55254;SDS011;41118;44.634;11.182;2024-02-14T12:25:05;7.75;;;1.92;;
55254;SDS011;41118;44.634;11.182;2024-02-14T12:27:34;4.95;;;1.40;;
55254;SDS011;41118;44.634;11.182;2024-02-14T12:30:04;4.53;;;1.10;;
55254;SDS011;41118;44.634;11.182;2024-02-14T12:32:30;5.90;;;2.10;;
55254;SDS011;41118;44.634;11.182;2024-02-14T12:34:56;8.25;;;2.30;;
55254;SDS011;41118;44.634;11.182;2024-02-14T12:37:22;4.57;;;1.02;;
55254;SDS011;41118;44.634;11.182;2024-02-14T12:39:48;3.25;;;0.82;;
55254;SDS011;41118;44.634;11.182;2024-02-14T12:42:15;4.55;;;0.60;;
55254;SDS011;41118;44.634;11.182;2024-02-14T12:44:43;5.72;;;0.90;;
55254;SDS011;41118;44.634;11.182;2024-02-14T12:47:09;4.97;;;0.65;;
55254;SDS011;41118;44.634;11.182;2024-02-14T12:49:37;4.00;;;1.40;;
55254;SDS011;41118;44.634;11.182;2024-02-14T12:52:03;2.25;;;0.77;;
55254;SDS011;41118;44.634;11.182;2024-02-14T12:54:29;5.82;;;0.60;;
55254;SDS011;41118;44.634;11.182;2024-02-14T12:56:56;3.20;;;0.73;;
55254;SDS011;41118;44.634;11.182;2024-02-14T12:59:22;3.60;;;1.02;;
55254;SDS011;41118;44.634;11.182;2024-02-14T13:01:49;4.07;;;0.70;;
55254;SDS011;41118;44.634;11.182;2024-02-14T13:04:15;5.30;;;1.15;;
55254;SDS011;41118;44.634;11.182;2024-02-14T13:06:41;6.13;;;1.08;;
55254;SDS011;41118;44.634;11.182;2024-02-14T13:09:08;6.50;;;1.13;;
55254;SDS011;41118;44.634;11.182;2024-02-14T13:11:35;6.75;;;1.40;;
55254;SDS011;41118;44.634;11.182;2024-02-14T13:14:02;6.15;;;0.80;;
55254;SDS011;41118;44.634;11.182;2024-02-14T13:16:29;5.60;;;0.50;;
55254;SDS011;41118;44.634;11.182;2024-02-14T13:18:55;7.85;;;1.00;;
55254;SDS011;41118;44.634;11.182;2024-02-14T13:21:21;3.17;;;0.90;;
55254;SDS011;41118;44.634;11.182;2024-02-14T13:23:47;5.40;;;1.05;;
55254;SDS011;41118;44.634;11.182;2024-02-14T13:26:13;6.03;;;1.75;;
55254;SDS011;41118;44.634;11.182;2024-02-14T13:28:39;3.72;;;1.15;;
55254;SDS011;41118;44.634;11.182;2024-02-14T13:31:06;10.85;;;2.17;;
55254;SDS011;41118;44.634;11.182;2024-02-14T13:33:32;9.35;;;1.95;;
55254;SDS011;41118;44.634;11.182;2024-02-14T13:35:58;9.15;;;1.80;;
55254;SDS011;41118;44.634;11.182;2024-02-14T13:38:25;10.20;;;2.28;;
55254;SDS011;41118;44.634;11.182;2024-02-14T13:40:51;7.55;;;1.65;;
55254;SDS011;41118;44.634;11.182;2024-02-14T13:43:18;4.18;;;0.95;;
55254;SDS011;41118;44.634;11.182;2024-02-14T13:45:44;8.43;;;2.72;;
55254;SDS011;41118;44.634;11.182;2024-02-14T13:48:11;6.78;;;2.10;;
55254;SDS011;41118;44.634;11.182;2024-02-14T13:50:37;6.43;;;1.40;;
55254;SDS011;41118;44.634;11.182;2024-02-14T13:53:04;11.60;;;1.75;;
55254;SDS011;41118;44.634;11.182;2024-02-14T13:55:30;6.40;;;1.30;;
55254;SDS011;41118;44.634;11.182;2024-02-14T13:57:56;7.70;;;1.27;;
55254;SDS011;41118;44.634;11.182;2024-02-14T14:00:23;5.60;;;1.33;;
55254;SDS011;41118;44.634;11.182;2024-02-14T14:02:49;4.60;;;1.13;;
55254;SDS011;41118;44.634;11.182;2024-02-14T14:05:15;6.97;;;1.30;;
55254;SDS011;41118;44.634;11.182;2024-02-14T14:07:41;3.88;;;1.88;;
55254;SDS011;41118;44.634;11.182;2024-02-14T14:10:08;3.85;;;1.02;;
55254;SDS011;41118;44.634;11.182;2024-02-14T14:12:34;6.03;;;0.68;;
55254;SDS011;41118;44.634;11.182;2024-02-14T14:15:00;7.22;;;0.93;;
55254;SDS011;41118;44.634;11.182;2024-02-14T14:17:27;9.00;;;0.80;;
55254;SDS011;41118;44.634;11.182;2024-02-14T14:19:53;7.28;;;0.75;;
55254;SDS011;41118;44.634;11.182;2024-02-14T14:22:19;5.70;;;1.25;;
55254;SDS011;41118;44.634;11.182;2024-02-14T14:24:46;5.90;;;1.23;;